Time;durP1;ratioP1;P1;durP2;ratioP2;P2;SDS_P1;SDS_P2;PMS_P1;PMS_P2;Temp;Humidity;BMP_temperature;BMP_pressure;BME280_temperature;BME280_humidity;BME280_pressure;Samples;Min_cycle;Max_cycle;Signal;HPM_P1;HPM_P2
2022/06/08 00:00:27;;;;;;;8.95;3.88;;;11.70;87.30;;;;;;5056166;28;20052;-70
2022/06/08 00:03:21;;;;;;;6.07;3.15;;;11.70;87.50;;;;;;5054597;28;20076;-69
2022/06/08 00:05:47;;;;;;;10.73;3.83;;;11.70;87.60;;;;;;5053321;28;20025;-69
2022/06/08 00:08:15;;;;;;;8.02;3.13;;;11.60;88.00;;;;;;5057274;28;20033;-70
2022/06/08 00:10:41;;;;;;;9.50;3.42;;;11.60;88.20;;;;;;5053241;28;20116;-69
2022/06/08 00:13:09;;;;;;;7.22;2.90;;;11.70;87.50;;;;;;5057030;28;20096;-70
2022/06/08 00:15:35;;;;;;;9.60;3.78;;;11.70;87.70;;;;;;5051472;28;20027;-69
2022/06/08 00:18:02;;;;;;;5.28;3.08;;;11.80;88.00;;;;;;5055623;28;20128;-69
2022/06/08 00:20:28;;;;;;;10.10;3.60;;;11.80;87.80;;;;;;5047142;28;20022;-69
2022/06/08 00:22:56;;;;;;;6.28;3.30;;;11.90;88.80;;;;;;5055839;28;20036;-70
2022/06/08 00:25:22;;;;;;;4.95;2.92;;;11.90;89.50;;;;;;5055955;28;20028;-70
2022/06/08 00:27:48;;;;;;;6.53;2.97;;;11.90;90.20;;;;;;5055827;28;20426;-69
2022/06/08 00:30:14;;;;;;;7.13;3.30;;;11.90;90.80;;;;;;5046947;28;20422;-69
2022/06/08 00:32:40;;;;;;;8.68;3.03;;;11.90;91.70;;;;;;5050851;28;20029;-69
2022/06/08 00:35:07;;;;;;;8.07;3.05;;;11.90;91.80;;;;;;5055874;28;20025;-69
2022/06/08 00:37:33;;;;;;;5.28;3.08;;;11.90;91.80;;;;;;5055501;28;20116;-70
2022/06/08 00:39:58;;;;;;;7.70;2.85;;;11.90;92.30;;;;;;5053232;28;20477;-69
2022/06/08 00:42:25;;;;;;;5.93;2.30;;;12.00;93.80;;;;;;5057361;28;20035;-69
2022/06/08 00:45:00;;;;;;;7.35;2.80;;;12.10;94.40;;;;;;5051312;28;20077;-70
2022/06/08 00:47:34;;;;;;;5.93;2.40;;;12.20;94.50;;;;;;5053795;28;20035;-69
2022/06/08 00:50:06;;;;;;;6.28;2.50;;;12.20;94.60;;;;;;5055284;28;20029;-70
2022/06/08 00:52:34;;;;;;;7.85;2.63;;;12.10;94.70;;;;;;5054848;28;20417;-69
2022/06/08 00:55:05;;;;;;;4.50;2.20;;;12.20;96.50;;;;;;5057487;28;20102;-69
2022/06/08 00:57:47;;;;;;;7.15;2.75;;;12.30;96.40;;;;;;5054816;28;20679;-69
2022/06/08 01:00:32;;;;;;;5.72;2.65;;;12.30;96.70;;;;;;5055978;28;20027;-69
2022/06/08 01:02:59;;;;;;;6.45;2.28;;;12.30;96.90;;;;;;5053857;28;20047;-69
2022/06/08 01:05:31;;;;;;;7.35;2.47;;;12.30;97.00;;;;;;5051438;28;20102;-69
2022/06/08 01:08:05;;;;;;;7.80;2.40;;;12.30;96.40;;;;;;5046211;28;20205;-69
2022/06/08 01:10:45;;;;;;;8.70;2.30;;;12.20;96.80;;;;;;5053553;28;20242;-69
2022/06/08 01:13:11;;;;;;;7.60;2.40;;;12.10;97.60;;;;;;5049104;28;20108;-69
2022/06/08 01:15:39;;;;;;;5.05;2.20;;;12.10;97.30;;;;;;5039332;28;20041;-69
2022/06/08 01:18:05;;;;;;;6.07;2.08;;;12.00;97.50;;;;;;5056152;28;20048;-69
2022/06/08 01:20:31;;;;;;;8.07;2.38;;;12.00;97.00;;;;;;5054594;28;20433;-69
2022/06/08 01:22:57;;;;;;;7.47;2.20;;;11.90;97.30;;;;;;5055847;28;20032;-69
2022/06/08 01:25:25;;;;;;;5.57;2.17;;;11.90;97.00;;;;;;5056711;28;20025;-69
2022/06/08 01:28:27;;;;;;;7.65;2.25;;;11.80;98.00;;;;;;5054505;28;20032;-69
2022/06/08 01:31:01;;;;;;;5.97;2.58;;;11.80;96.30;;;;;;5054542;28;20025;-69
2022/06/08 01:33:46;;;;;;;4.80;2.13;;;11.60;95.30;;;;;;5037603;28;20029;-70
2022/06/08 01:36:45;;;;;;;7.72;2.85;;;11.60;95.60;;;;;;5047477;28;20032;-69
2022/06/08 01:39:43;;;;;;;5.97;2.35;;;11.50;95.20;;;;;;5045736;28;20037;-69
2022/06/08 01:42:20;;;;;;;11.60;2.92;;;11.40;94.20;;;;;;5044508;28;20073;-69
2022/06/08 01:45:30;;;;;;;10.68;3.10;;;11.30;93.80;;;;;;5046233;28;20102;-69
2022/06/08 01:48:16;;;;;;;10.00;2.65;;;11.30;93.70;;;;;;5048470;28;20037;-69
2022/06/08 01:51:05;;;;;;;6.95;2.47;;;11.30;94.00;;;;;;5042784;28;20033;-69
2022/06/08 01:53:47;;;;;;;7.82;2.78;;;11.30;93.80;;;;;;5040885;28;20037;-69
2022/06/08 01:56:54;;;;;;;9.63;3.10;;;11.30;93.60;;;;;;5056025;28;20100;-69
2022/06/08 01:59:37;;;;;;;7.50;2.75;;;11.30;93.30;;;;;;5049342;28;20059;-69
2022/06/08 02:02:22;;;;;;;9.45;3.03;;;11.20;93.00;;;;;;5051401;28;20096;-69
2022/06/08 02:05:17;;;;;;;7.80;2.92;;;11.10;92.60;;;;;;5050991;28;20021;-69
2022/06/08 02:07:56;;;;;;;10.30;3.33;;;11.10;93.00;;;;;;5053865;28;20024;-69
2022/06/08 02:10:49;;;;;;;10.80;2.83;;;11.00;92.70;;;;;;5043503;28;20465;-69
2022/06/08 02:13:36;;;;;;;10.30;2.85;;;11.00;92.30;;;;;;5047486;28;20051;-69
2022/06/08 02:16:18;;;;;;;10.32;2.85;;;11.00;92.80;;;;;;5045840;28;20017;-69
2022/06/08 02:18:49;;;;;;;7.40;2.63;;;11.00;92.90;;;;;;5052334;28;20414;-69
2022/06/08 02:21:21;;;;;;;6.38;3.15;;;11.00;93.00;;;;;;5052613;28;20048;-69
2022/06/08 02:23:56;;;;;;;7.20;3.13;;;10.90;92.80;;;;;;5053444;28;20414;-70
2022/06/08 02:26:28;;;;;;;7.50;2.90;;;10.90;92.10;;;;;;5056008;28;20052;-68
2022/06/08 02:29:05;;;;;;;8.20;2.95;;;10.80;91.60;;;;;;5049824;28;20087;-71
2022/06/08 02:31:35;;;;;;;7.75;3.40;;;10.70;91.30;;;;;;5047800;28;20040;-70
2022/06/08 02:34:29;;;;;;;10.98;3.00;;;10.60;90.90;;;;;;5048459;28;20029;-70
2022/06/08 02:37:06;;;;;;;16.83;3.35;;;10.50;90.40;;;;;;5052875;28;20063;-70
2022/06/08 02:39:38;;;;;;;7.70;3.13;;;10.50;90.60;;;;;;5044403;28;20079;-70
2022/06/08 02:42:24;;;;;;;7.82;2.53;;;10.40;90.80;;;;;;5049428;28;20511;-69
2022/06/08 02:44:54;;;;;;;9.15;2.53;;;10.30;91.20;;;;;;5042902;28;20108;-69
2022/06/08 02:47:31;;;;;;;7.53;2.78;;;10.20;91.00;;;;;;5052499;28;20033;-69
2022/06/08 02:50:03;;;;;;;12.00;3.72;;;10.10;90.10;;;;;;5044597;28;20033;-70
2022/06/08 02:52:30;;;;;;;7.78;2.60;;;10.10;90.00;;;;;;5054827;28;20037;-69
2022/06/08 02:54:57;;;;;;;5.97;3.03;;;10.10;90.20;;;;;;5052027;28;20032;-69
2022/06/08 02:57:32;;;;;;;7.90;3.30;;;10.00;89.90;;;;;;5053056;28;20029;-69
2022/06/08 03:00:10;;;;;;;8.75;2.80;;;10.00;89.70;;;;;;5051731;28;20028;-69
2022/06/08 03:02:48;;;;;;;10.25;3.28;;;10.00;89.20;;;;;;5055368;28;20048;-69
2022/06/08 03:05:20;;;;;;;6.63;2.75;;;10.00;89.10;;;;;;5050959;28;20025;-70
2022/06/08 03:07:53;;;;;;;11.30;3.00;;;9.90;89.30;;;;;;5054473;28;20028;-69
2022/06/08 03:10:20;;;;;;;6.35;2.83;;;9.90;89.20;;;;;;5049661;28;20126;-69
2022/06/08 03:13:12;;;;;;;8.18;2.85;;;9.90;89.00;;;;;;5052890;28;20410;-69
2022/06/08 03:15:40;;;;;;;5.65;2.63;;;10.00;89.40;;;;;;5042384;28;20031;-70
2022/06/08 03:18:06;;;;;;;7.93;3.17;;;10.00;89.90;;;;;;5054103;28;20024;-69
2022/06/08 03:20:32;;;;;;;6.15;2.78;;;10.00;89.80;;;;;;5051255;28;20101;-69
2022/06/08 03:22:59;;;;;;;6.70;3.03;;;10.00;90.00;;;;;;5055566;28;20104;-69
2022/06/08 03:25:25;;;;;;;8.38;2.55;;;10.10;90.50;;;;;;5044851;28;20110;-70
2022/06/08 03:27:52;;;;;;;6.90;2.28;;;10.10;91.70;;;;;;5053502;28;20104;-69
2022/06/08 03:30:18;;;;;;;6.47;3.10;;;10.20;92.00;;;;;;5049708;28;20028;-70
2022/06/08 03:32:44;;;;;;;9.57;2.58;;;10.20;92.50;;;;;;5052324;28;20035;-68
2022/06/08 03:35:10;;;;;;;7.88;3.10;;;10.20;92.50;;;;;;5051750;28;20119;-69
2022/06/08 03:37:36;;;;;;;10.10;3.10;;;10.20;92.50;;;;;;5053942;28;20032;-70
2022/06/08 03:40:03;;;;;;;8.80;3.15;;;10.20;92.50;;;;;;5050455;28;20021;-70
2022/06/08 03:42:28;;;;;;;5.85;2.70;;;10.20;92.30;;;;;;5051247;28;20021;-69
2022/06/08 03:44:54;;;;;;;11.30;2.90;;;10.20;92.40;;;;;;5045792;28;20075;-69
2022/06/08 03:47:25;;;;;;;11.25;2.85;;;10.10;92.10;;;;;;5052373;28;20040;-69
2022/06/08 03:49:53;;;;;;;8.77;2.92;;;10.10;91.70;;;;;;5047714;28;20060;-69
2022/06/08 03:52:24;;;;;;;9.32;2.70;;;10.10;91.10;;;;;;5049841;28;20029;-69
2022/06/08 03:54:54;;;;;;;8.70;2.70;;;10.20;90.70;;;;;;5052486;28;20029;-69
2022/06/08 03:57:22;;;;;;;7.93;3.30;;;10.30;90.90;;;;;;5048596;28;20041;-70
2022/06/08 03:59:49;;;;;;;10.63;2.92;;;10.30;90.60;;;;;;5050784;28;20100;-69
2022/06/08 04:02:16;;;;;;;16.73;2.97;;;10.40;90.50;;;;;;5051147;28;20037;-69
2022/06/08 04:04:41;;;;;;;12.90;2.83;;;10.50;91.30;;;;;;5046293;28;20025;-70
2022/06/08 04:07:08;;;;;;;8.30;2.55;;;10.60;91.90;;;;;;5045981;28;20060;-69
2022/06/08 04:09:34;;;;;;;8.00;3.03;;;10.70;92.60;;;;;;5046880;28;20033;-69
2022/06/08 04:12:00;;;;;;;7.13;2.58;;;10.70;92.80;;;;;;5049410;28;20037;-69
2022/06/08 04:14:26;;;;;;;11.20;3.15;;;10.70;93.10;;;;;;5052701;28;20029;-69
2022/06/08 04:16:51;;;;;;;5.38;2.53;;;10.80;93.40;;;;;;5053326;28;20295;-70
2022/06/08 04:19:18;;;;;;;7.90;3.20;;;10.80;93.90;;;;;;5053016;28;20331;-69
2022/06/08 04:21:44;;;;;;;7.22;2.58;;;10.80;93.70;;;;;;5051137;28;20029;-69
2022/06/08 04:24:13;;;;;;;6.00;2.25;;;10.80;93.60;;;;;;5054059;28;20068;-69
2022/06/08 04:26:39;;;;;;;7.82;2.55;;;10.80;93.30;;;;;;5054563;28;20364;-69
2022/06/08 04:29:06;;;;;;;5.85;2.28;;;10.80;93.70;;;;;;5055565;28;20056;-69
2022/06/08 04:31:34;;;;;;;11.60;2.90;;;10.80;93.80;;;;;;5057921;28;20102;-70
2022/06/08 04:34:02;;;;;;;7.20;2.40;;;10.70;93.70;;;;;;5052048;28;20151;-70
2022/06/08 04:36:28;;;;;;;9.57;2.60;;;10.70;93.40;;;;;;5055438;28;20035;-69
2022/06/08 04:38:54;;;;;;;7.80;2.63;;;10.70;93.00;;;;;;5054851;28;20043;-69
2022/06/08 04:41:20;;;;;;;9.38;3.25;;;10.70;92.70;;;;;;5055198;28;20067;-70
2022/06/08 04:43:47;;;;;;;6.65;2.30;;;10.70;92.70;;;;;;5047624;28;20422;-70
2022/06/08 04:46:15;;;;;;;6.85;2.35;;;10.70;93.00;;;;;;5053368;28;20033;-69
2022/06/08 04:48:46;;;;;;;10.07;2.63;;;10.70;93.00;;;;;;5055506;28;20029;-70
2022/06/08 04:51:14;;;;;;;5.97;2.55;;;10.70;92.90;;;;;;5054904;28;20056;-69
2022/06/08 04:53:42;;;;;;;8.38;2.83;;;10.80;92.60;;;;;;5056277;28;20025;-70
2022/06/08 04:56:08;;;;;;;8.20;2.50;;;11.00;92.50;;;;;;5049128;28;20163;-70
2022/06/08 04:58:34;;;;;;;7.40;2.70;;;11.20;92.30;;;;;;5053462;28;20029;-70
2022/06/08 05:01:01;;;;;;;9.05;2.30;;;11.50;93.10;;;;;;5052123;28;20291;-70
2022/06/08 05:03:29;;;;;;;7.45;2.40;;;11.80;94.30;;;;;;5054402;28;20071;-70
2022/06/08 05:05:55;;;;;;;9.23;1.92;;;11.90;96.10;;;;;;5054312;28;20142;-69
2022/06/08 05:08:23;;;;;;;7.68;1.70;;;12.10;96.70;;;;;;5046167;28;20422;-70
2022/06/08 05:10:50;;;;;;;6.55;2.00;;;12.30;96.70;;;;;;5055377;28;20029;-70
2022/06/08 05:13:16;;;;;;;6.78;2.33;;;12.50;97.40;;;;;;5045061;28;20029;-69
2022/06/08 05:15:43;;;;;;;7.75;2.13;;;12.60;98.00;;;;;;5051092;28;20043;-69
2022/06/08 05:18:14;;;;;;;5.88;2.40;;;12.80;98.00;;;;;;5051108;28;20028;-70
2022/06/08 05:20:42;;;;;;;5.75;1.80;;;12.90;97.60;;;;;;5054797;28;20029;-69
2022/06/08 05:23:11;;;;;;;7.18;2.15;;;12.90;97.80;;;;;;5052533;28;20418;-71
2022/06/08 05:25:40;;;;;;;9.50;1.92;;;13.00;97.70;;;;;;5054645;28;20038;-72
2022/06/08 05:28:07;;;;;;;5.45;1.80;;;13.00;98.00;;;;;;5052333;28;20025;-71
2022/06/08 05:30:34;;;;;;;7.60;1.75;;;13.00;97.80;;;;;;5053663;28;20029;-70
2022/06/08 05:33:01;;;;;;;6.93;2.05;;;13.00;98.00;;;;;;5053195;28;20364;-71
2022/06/08 05:35:27;;;;;;;4.60;1.95;;;13.00;97.80;;;;;;5050700;28;20325;-70
2022/06/08 05:37:53;;;;;;;6.38;1.85;;;13.00;97.40;;;;;;5054370;28;20029;-70
2022/06/08 05:40:21;;;;;;;5.38;2.22;;;13.00;98.00;;;;;;5053284;28;20037;-70
2022/06/08 05:42:47;;;;;;;7.47;1.85;;;13.10;98.00;;;;;;5054413;28;20040;-70
2022/06/08 05:45:18;;;;;;;5.78;1.80;;;13.20;98.00;;;;;;5051466;28;20025;-70
2022/06/08 05:47:44;;;;;;;4.38;1.80;;;13.30;98.00;;;;;;5055565;28;20101;-70
2022/06/08 05:50:10;;;;;;;8.23;1.98;;;13.40;98.00;;;;;;5055445;28;20169;-70
2022/06/08 05:52:36;;;;;;;4.15;1.52;;;13.60;98.00;;;;;;5051106;28;20388;-70
2022/06/08 05:55:02;;;;;;;7.20;1.80;;;13.70;98.00;;;;;;5054065;28;20032;-70
2022/06/08 05:57:27;;;;;;;4.45;1.50;;;13.60;97.70;;;;;;5052866;28;20449;-70
2022/06/08 05:59:53;;;;;;;4.32;1.50;;;13.80;97.70;;;;;;5048277;28;20021;-69
2022/06/08 06:02:19;;;;;;;6.20;1.80;;;14.00;97.50;;;;;;5053060;28;20433;-70
2022/06/08 06:04:45;;;;;;;3.90;1.45;;;14.10;97.90;;;;;;5049425;28;20083;-70
2022/06/08 06:07:12;;;;;;;6.82;1.67;;;14.20;97.60;;;;;;5054268;28;20028;-70
2022/06/08 06:09:39;;;;;;;5.75;1.67;;;14.20;98.00;;;;;;5051909;28;20037;-70
2022/06/08 06:12:05;;;;;;;5.97;1.95;;;14.20;97.70;;;;;;5051050;28;20037;-70
2022/06/08 06:14:32;;;;;;;7.25;1.88;;;14.20;97.70;;;;;;5049142;28;20028;-70
2022/06/08 06:16:58;;;;;;;8.95;2.22;;;14.40;98.00;;;;;;5054950;28;20032;-70
2022/06/08 06:19:24;;;;;;;4.00;1.55;;;14.50;98.00;;;;;;5055032;28;20306;-70
2022/06/08 06:21:50;;;;;;;6.00;1.48;;;14.70;98.00;;;;;;5056769;28;20031;-70
2022/06/08 06:24:16;;;;;;;4.45;1.58;;;14.90;98.00;;;;;;5055918;28;20100;-70
2022/06/08 06:26:41;;;;;;;4.30;1.50;;;15.00;98.00;;;;;;5053738;28;20051;-70
2022/06/08 06:29:07;;;;;;;7.45;1.77;;;15.00;98.00;;;;;;5055525;28;20025;-70
2022/06/08 06:31:49;;;;;;;5.75;1.20;;;15.20;98.00;;;;;;5054408;28;20032;-68
2022/06/08 06:34:18;;;;;;;6.32;1.52;;;15.40;98.00;;;;;;5051128;28;20698;-71
2022/06/08 06:36:44;;;;;;;4.55;1.48;;;15.50;97.30;;;;;;5051736;28;20303;-70
2022/06/08 06:39:11;;;;;;;4.70;1.23;;;15.70;97.00;;;;;;5050391;28;20310;-70
2022/06/08 06:41:38;;;;;;;9.57;1.80;;;15.90;96.00;;;;;;5049356;28;20053;-69
2022/06/08 06:44:04;;;;;;;3.63;1.15;;;16.10;95.90;;;;;;5053215;28;20033;-69
2022/06/08 06:46:31;;;;;;;8.15;1.80;;;16.10;94.90;;;;;;5051258;28;20079;-69
2022/06/08 06:48:56;;;;;;;4.72;1.50;;;16.20;95.10;;;;;;5051010;28;20147;-70
2022/06/08 06:51:22;;;;;;;4.95;1.83;;;16.30;93.50;;;;;;5052509;28;20120;-70
2022/06/08 06:53:48;;;;;;;5.25;2.28;;;16.40;94.10;;;;;;5055412;28;20036;-70
2022/06/08 06:56:13;;;;;;;6.20;1.70;;;16.40;94.10;;;;;;5054060;28;20025;-70
2022/06/08 06:58:39;;;;;;;3.70;1.20;;;16.50;92.60;;;;;;5053961;28;20028;-70
2022/06/08 07:01:06;;;;;;;5.80;1.65;;;16.70;93.10;;;;;;5054531;28;20326;-70
2022/06/08 07:03:32;;;;;;;5.80;1.77;;;17.10;93.70;;;;;;5052301;28;20539;-70
2022/06/08 07:05:57;;;;;;;4.32;1.25;;;17.50;92.70;;;;;;5045451;28;20105;-70
2022/06/08 07:08:24;;;;;;;4.40;1.10;;;18.10;92.80;;;;;;5048478;28;20155;-70
2022/06/08 07:13:34;;;;;;;4.55;1.27;;;18.90;86.40;;;;;;5052485;28;20044;-71
2022/06/08 07:16:00;;;;;;;5.55;1.40;;;19.10;85.40;;;;;;5053218;28;20426;-70
2022/06/08 07:18:27;;;;;;;3.85;1.25;;;19.00;84.50;;;;;;5049691;28;20040;-69
2022/06/08 07:20:53;;;;;;;5.45;1.25;;;19.10;84.50;;;;;;5051154;28;20414;-70
2022/06/08 07:23:22;;;;;;;4.13;1.40;;;18.90;81.90;;;;;;5051586;28;20044;-70
2022/06/08 07:25:48;;;;;;;3.15;1.08;;;18.50;83.30;;;;;;5052875;28;20029;-70
2022/06/08 07:28:15;;;;;;;4.18;1.20;;;18.50;82.90;;;;;;5054448;28;20040;-70
2022/06/08 07:30:40;;;;;;;5.10;1.17;;;18.70;81.60;;;;;;5054171;28;20035;-70
2022/06/08 07:33:06;;;;;;;3.60;1.20;;;19.20;79.30;;;;;;5055803;28;20108;-70
2022/06/08 07:35:32;;;;;;;5.22;1.15;;;19.00;81.00;;;;;;5055889;28;20389;-70
2022/06/08 07:37:58;;;;;;;7.07;1.73;;;20.00;81.20;;;;;;5055744;28;20087;-70
2022/06/08 07:40:24;;;;;;;6.63;1.65;;;20.70;76.20;;;;;;5054632;28;20318;-70
2022/06/08 07:42:50;;;;;;;4.75;1.23;;;21.20;77.20;;;;;;5055734;28;20032;-70
2022/06/08 07:45:16;;;;;;;5.65;1.50;;;21.60;76.20;;;;;;5054467;28;20023;-71
2022/06/08 07:50:27;;;;;;;;;;;22.20;76.10;;;;;;5055944;28;20083;-70
2022/06/08 07:52:52;;;;;;;4.15;0.90;;;23.00;73.10;;;;;;5053815;28;19908;-70
2022/06/08 07:55:19;;;;;;;4.05;1.13;;;23.90;68.90;;;;;;5054527;28;20032;-71
2022/06/08 07:57:47;;;;;;;4.85;1.10;;;24.30;64.40;;;;;;5054437;28;20037;-70
2022/06/08 08:00:14;;;;;;;4.50;1.02;;;23.90;66.10;;;;;;5054507;28;20024;-70
2022/06/08 08:02:41;;;;;;;8.68;1.40;;;24.30;65.70;;;;;;5058703;28;20090;-71
2022/06/08 08:05:09;;;;;;;3.63;1.00;;;24.70;64.20;;;;;;5059593;28;20071;-71
2022/06/08 08:07:36;;;;;;;6.53;1.65;;;25.50;63.30;;;;;;5059462;28;20029;-71
2022/06/08 08:10:03;;;;;;;4.38;0.88;;;26.80;62.30;;;;;;5059336;28;20029;-71
2022/06/08 08:12:29;;;;;;;2.17;0.75;;;27.30;62.60;;;;;;5056199;28;20040;-70
2022/06/08 08:14:54;;;;;;;4.38;1.02;;;27.50;61.60;;;;;;5058149;28;20029;-70
2022/06/08 08:17:20;;;;;;;5.18;1.20;;;27.10;60.60;;;;;;5059271;28;20104;-70
2022/06/08 08:19:46;;;;;;;6.82;0.98;;;26.80;61.70;;;;;;5059292;28;20444;-72
2022/06/08 08:22:14;;;;;;;4.47;1.10;;;26.10;61.40;;;;;;5059152;28;20112;-72
2022/06/08 08:24:40;;;;;;;3.13;0.95;;;24.80;63.30;;;;;;5057928;28;20325;-71
2022/06/08 08:27:06;;;;;;;2.95;0.95;;;24.40;64.50;;;;;;5059093;28;20084;-71
2022/06/08 08:29:31;;;;;;;3.85;1.10;;;24.70;62.40;;;;;;5056878;28;20029;-71
2022/06/08 08:31:57;;;;;;;4.75;1.30;;;24.70;64.50;;;;;;5057992;28;20025;-71
2022/06/08 08:34:26;;;;;;;4.53;1.17;;;24.20;63.80;;;;;;5058859;28;20429;-71
2022/06/08 08:36:51;;;;;;;8.40;1.20;;;24.40;63.40;;;;;;5059014;28;20364;-70
2022/06/08 08:39:17;;;;;;;4.38;1.33;;;24.20;63.70;;;;;;5058693;28;20075;-71
2022/06/08 08:44:41;;;;;;;5.45;1.08;;;23.80;64.80;;;;;;5058088;28;20087;-70
2022/06/08 08:47:38;;;;;;;3.88;0.90;;;23.30;64.60;;;;;;5057814;28;20025;-70
2022/06/08 08:50:23;;;;;;;3.08;0.90;;;22.50;65.30;;;;;;5058689;28;20313;-71
2022/06/08 08:53:07;;;;;;;3.28;1.05;;;22.50;67.40;;;;;;5058660;28;20029;-70
2022/06/08 08:55:47;;;;;;;4.78;1.20;;;23.30;63.60;;;;;;5057434;28;20032;-71
2022/06/08 08:58:19;;;;;;;3.92;1.00;;;25.00;62.30;;;;;;5057372;28;20047;-70
2022/06/08 09:01:10;;;;;;;2.58;0.80;;;25.20;60.80;;;;;;5056035;28;20024;-71
2022/06/08 09:03:49;;;;;;;5.30;1.27;;;25.90;61.10;;;;;;5037495;28;20056;-71
2022/06/08 09:06:30;;;;;;;4.95;1.02;;;26.20;58.00;;;;;;5038603;28;20306;-70
2022/06/08 09:09:00;;;;;;;3.58;1.23;;;25.50;60.30;;;;;;5038591;28;20026;-70
2022/06/08 09:11:42;;;;;;;3.65;0.80;;;25.40;60.00;;;;;;5038395;28;20033;-71
2022/06/08 09:14:19;;;;;;;3.35;1.10;;;24.20;61.90;;;;;;5036927;28;20162;-71
2022/06/08 09:16:50;;;;;;;4.43;1.02;;;24.50;61.40;;;;;;5049064;28;20029;-70
2022/06/08 09:19:24;;;;;;;2.55;0.80;;;25.00;61.40;;;;;;5056668;28;20029;-71
2022/06/08 09:22:00;;;;;;;4.55;0.95;;;26.30;60.00;;;;;;5038184;28;20028;-70
2022/06/08 09:24:35;;;;;;;2.80;0.80;;;27.10;57.50;;;;;;5038218;28;20291;-70
2022/06/08 09:27:27;;;;;;;3.80;0.90;;;26.50;58.60;;;;;;5038100;28;20021;-71
2022/06/08 09:30:09;;;;;;;7.57;1.15;;;25.70;58.80;;;;;;5036144;28;20319;-70
2022/06/08 09:32:44;;;;;;;4.13;1.30;;;24.70;60.10;;;;;;5038039;28;20030;-70
2022/06/08 09:35:34;;;;;;;4.60;1.00;;;25.00;60.30;;;;;;5047996;28;20310;-71
2022/06/08 09:38:21;;;;;;;4.32;1.40;;;24.10;61.20;;;;;;5057685;28;20036;-71
2022/06/08 09:41:14;;;;;;;4.05;1.17;;;22.70;64.20;;;;;;5057788;28;20053;-71
2022/06/08 09:44:09;;;;;;;2.78;0.98;;;21.80;65.40;;;;;;5056612;28;20029;-70
2022/06/08 09:52:20;;;;;;;4.65;1.38;;;22.10;65.00;;;;;;5057507;28;20051;-70
2022/06/08 09:54:58;;;;;;;5.35;1.08;;;23.30;63.10;;;;;;5057599;28;20029;-70
2022/06/08 09:57:32;;;;;;;4.20;1.27;;;23.30;61.50;;;;;;5057324;28;20017;-71
2022/06/08 10:00:25;;;;;;;3.05;1.05;;;22.90;62.80;;;;;;5056271;28;20017;-71
2022/06/08 10:03:05;;;;;;;4.03;1.10;;;22.40;62.80;;;;;;5056063;28;20033;-70
2022/06/08 10:05:53;;;;;;;5.03;1.10;;;22.50;61.40;;;;;;5057250;28;20021;-70
2022/06/08 10:08:27;;;;;;;4.20;1.10;;;24.20;57.50;;;;;;5057217;28;20112;-70
2022/06/08 10:11:03;;;;;;;1.83;0.68;;;26.00;56.80;;;;;;5056180;28;20037;-70
2022/06/08 10:13:34;;;;;;;4.47;1.10;;;27.70;54.80;;;;;;5056536;28;20341;-70
2022/06/08 10:16:10;;;;;;;3.60;1.00;;;28.40;53.50;;;;;;5057107;28;20056;-70
2022/06/08 10:18:45;;;;;;;3.70;0.85;;;28.50;52.10;;;;;;5057121;28;20291;-70
2022/06/08 10:21:17;;;;;;;2.95;0.68;;;28.20;53.80;;;;;;5056967;28;20322;-70
2022/06/08 10:24:01;;;;;;;2.85;0.82;;;27.40;53.50;;;;;;5056109;28;20032;-70
2022/06/08 10:26:29;;;;;;;;;;;27.20;53.20;;;;;;5057370;28;20029;-70
2022/06/08 10:29:16;;;;;;;4.35;1.27;;;27.40;54.40;;;;;;5055376;28;19927;-70
2022/06/08 10:31:50;;;;;;;2.97;0.68;;;27.10;54.10;;;;;;5056616;28;20032;-70
2022/06/08 10:34:20;;;;;;;3.58;1.02;;;26.10;55.10;;;;;;5056701;28;20060;-70
2022/06/08 10:36:52;;;;;;;3.88;0.88;;;26.20;57.00;;;;;;5056746;28;20104;-70
2022/06/08 10:39:18;;;;;;;4.30;1.80;;;26.80;53.20;;;;;;5056469;28;20041;-70
2022/06/08 10:44:52;;;;;;;4.00;1.30;;;25.80;55.60;;;;;;5055463;28;20036;-70
2022/06/08 10:47:39;;;;;;;3.75;1.10;;;25.50;55.90;;;;;;5056577;28;20025;-70
2022/06/08 10:50:04;;;;;;;5.05;0.88;;;25.80;55.20;;;;;;5056457;28;20112;-70
2022/06/08 10:52:41;;;;;;;2.65;0.75;;;26.10;53.40;;;;;;5056449;28;20096;-70
2022/06/08 10:55:19;;;;;;;3.03;0.80;;;25.80;53.80;;;;;;5056155;28;20067;-70
2022/06/08 10:57:49;;;;;;;3.42;1.00;;;25.30;56.50;;;;;;5051771;28;20330;-70
2022/06/08 11:00:40;;;;;;;4.60;0.70;;;26.10;55.60;;;;;;5046648;28;20108;-70
2022/06/08 11:03:23;;;;;;;2.92;0.70;;;26.40;54.30;;;;;;5036599;28;20021;-69
2022/06/08 11:05:49;;;;;;;3.42;0.90;;;27.30;54.70;;;;;;5053407;28;20036;-69
2022/06/08 11:08:18;;;;;;;4.13;0.80;;;28.00;51.80;;;;;;5055234;28;20380;-69
2022/06/08 11:10:44;;;;;;;2.97;0.80;;;28.20;51.30;;;;;;5054041;28;20033;-70
2022/06/08 11:13:25;;;;;;;4.05;0.80;;;28.90;50.90;;;;;;5055515;28;20090;-71
2022/06/08 11:15:53;;;;;;;3.25;0.80;;;28.90;50.70;;;;;;5050608;28;20029;-71
2022/06/08 11:18:28;;;;;;;2.35;0.90;;;28.00;49.80;;;;;;5055930;28;20031;-71
2022/06/08 11:21:18;;;;;;;4.18;0.80;;;27.00;50.40;;;;;;5047402;28;20032;-70
2022/06/08 11:23:54;;;;;;;3.72;0.95;;;27.20;52.50;;;;;;5054294;28;20040;-70
2022/06/08 11:26:25;;;;;;;2.55;0.80;;;27.60;51.70;;;;;;5053097;28;20047;-69
2022/06/08 11:28:59;;;;;;;3.22;0.70;;;27.80;50.80;;;;;;5050273;28;20430;-70
2022/06/08 11:31:28;;;;;;;2.53;0.70;;;27.20;51.60;;;;;;5053314;28;20025;-70
2022/06/08 11:34:03;;;;;;;2.80;0.70;;;26.80;52.60;;;;;;5049447;28;20100;-70
2022/06/08 11:37:26;;;;;;;3.15;0.90;;;26.30;53.50;;;;;;5053404;28;20032;-70
2022/06/08 11:40:19;;;;;;;3.38;0.80;;;26.90;53.20;;;;;;5053567;28;20041;-70
2022/06/08 11:42:50;;;;;;;5.20;1.00;;;26.90;52.60;;;;;;5053190;28;20031;-70
2022/06/08 11:45:21;;;;;;;4.05;0.93;;;26.70;53.00;;;;;;5052427;28;20103;-70
2022/06/08 11:48:15;;;;;;;2.78;1.23;;;26.10;54.60;;;;;;5052976;28;20342;-69
2022/06/08 11:50:50;;;;;;;;;;;25.90;55.10;;;;;;5050802;28;20039;-70
2022/06/08 11:53:39;;;;;;;;;;;25.90;53.90;;;;;;5054683;28;19904;-69
2022/06/08 11:56:07;;;;;;;3.40;0.90;;;25.70;53.70;;;;;;5043699;28;19913;-69
2022/06/08 11:58:35;;;;;;;3.58;1.10;;;25.10;54.50;;;;;;5054515;28;20032;-70
2022/06/08 12:01:18;;;;;;;2.38;0.70;;;25.10;55.60;;;;;;5054514;28;20108;-69
2022/06/08 12:03:58;;;;;;;3.30;0.90;;;25.50;56.30;;;;;;5054692;28;20040;-70
2022/06/08 12:06:29;;;;;;;4.72;0.88;;;26.40;54.00;;;;;;5054130;28;20056;-71
2022/06/08 12:09:04;;;;;;;4.28;0.90;;;26.60;53.60;;;;;;5054060;28;20028;-70
2022/06/08 12:11:33;;;;;;;2.85;0.82;;;26.30;54.30;;;;;;5053993;28;20029;-70
2022/06/08 12:14:01;;;;;;;3.72;1.25;;;25.30;55.00;;;;;;5053328;28;20024;-70
2022/06/08 12:16:36;;;;;;;2.75;0.95;;;24.70;56.40;;;;;;5053893;28;20417;-70
2022/06/08 12:19:17;;;;;;;4.25;1.10;;;24.70;57.10;;;;;;5054277;28;20087;-70
2022/06/08 12:21:46;;;;;;;2.53;0.90;;;24.80;57.50;;;;;;5055004;28;20028;-70
2022/06/08 12:24:11;;;;;;;3.97;1.17;;;24.90;57.10;;;;;;5054682;28;20035;-70
2022/06/08 12:26:37;;;;;;;3.83;1.00;;;24.90;55.50;;;;;;5055054;28;20461;-70
2022/06/08 12:29:32;;;;;;;7.28;1.15;;;25.10;56.70;;;;;;5053183;28;20035;-70
2022/06/08 12:32:22;;;;;;;5.25;0.90;;;25.10;55.70;;;;;;5054827;28;20104;-70
2022/06/08 12:34:53;;;;;;;2.30;0.80;;;25.50;54.30;;;;;;5054349;28;20028;-70
2022/06/08 12:37:30;;;;;;;3.65;1.10;;;26.10;54.40;;;;;;5053431;28;20047;-70
2022/06/08 12:40:21;;;;;;;5.68;0.90;;;27.10;54.30;;;;;;5054246;28;20025;-70
2022/06/08 12:43:10;;;;;;;5.15;1.10;;;27.90;54.00;;;;;;5054572;28;20094;-71
2022/06/08 12:45:38;;;;;;;3.63;1.00;;;28.00;51.60;;;;;;5052837;28;20025;-71
2022/06/08 12:48:24;;;;;;;2.83;0.88;;;27.30;51.70;;;;;;5056119;28;20365;-70
2022/06/08 12:50:52;;;;;;;5.30;1.20;;;27.10;53.10;;;;;;5057533;28;20100;-71
2022/06/08 12:53:18;;;;;;;2.97;0.90;;;26.80;54.10;;;;;;5057942;28;20098;-70
2022/06/08 12:55:44;;;;;;;3.03;0.85;;;26.00;54.40;;;;;;5058251;28;20029;-71
2022/06/08 12:58:11;;;;;;;3.55;0.77;;;26.00;54.00;;;;;;5058030;28;20029;-70
2022/06/08 13:00:44;;;;;;;3.15;0.75;;;26.60;55.60;;;;;;5056174;28;20031;-71
2022/06/08 13:03:18;;;;;;;3.03;0.90;;;26.60;53.80;;;;;;5058655;28;20044;-71
2022/06/08 13:05:46;;;;;;;2.05;0.80;;;26.40;55.30;;;;;;5057539;28;20036;-70
2022/06/08 13:08:21;;;;;;;3.67;1.05;;;26.50;55.50;;;;;;5054074;28;20040;-71
2022/06/08 13:10:52;;;;;;;3.22;1.00;;;26.60;55.50;;;;;;5058371;28;20033;-70
2022/06/08 13:13:25;;;;;;;5.40;0.90;;;26.00;55.60;;;;;;5058310;28;20362;-71
2022/06/08 13:15:55;;;;;;;4.13;1.00;;;25.50;57.50;;;;;;5056363;28;20115;-70
2022/06/08 13:18:24;;;;;;;4.57;1.10;;;25.00;58.00;;;;;;5057576;28;20033;-71
2022/06/08 13:20:52;;;;;;;2.50;0.90;;;24.60;56.50;;;;;;5057969;28;20052;-71
2022/06/08 13:23:18;;;;;;;3.55;1.10;;;24.40;58.20;;;;;;5057642;28;20017;-70
2022/06/08 13:25:46;;;;;;;5.47;1.20;;;24.00;58.60;;;;;;5057795;28;20017;-71
2022/06/08 13:28:26;;;;;;;4.47;1.33;;;24.00;57.20;;;;;;5055821;28;20025;-69
2022/06/08 13:30:54;;;;;;;3.50;1.08;;;23.80;59.00;;;;;;5056298;28;20020;-69